sensor_id;sensor_type;location;lat;lon;timestamp;pressure;altitude;pressure_sealevel;temperature;humidity
55490;BME280;44029;52.956;4.772;2022-10-04T00:00:22;102391.66;;;15.03;100.00
55490;BME280;44029;52.956;4.772;2022-10-04T00:02:50;102386.34;;;14.89;100.00
55490;BME280;44029;52.956;4.772;2022-10-04T00:05:20;102379.53;;;14.92;100.00
55490;BME280;44029;52.956;4.772;2022-10-04T00:07:52;102386.47;;;14.95;100.00
55490;BME280;44029;52.956;4.772;2022-10-04T00:12:48;102375.31;;;14.89;100.00
55490;BME280;44029;52.956;4.772;2022-10-04T00:15:24;102373.41;;;14.90;100.00
55490;BME280;44029;52.956;4.772;2022-10-04T00:25:45;102360.13;;;14.75;100.00
55490;BME280;44029;52.956;4.772;2022-10-04T00:39:24;102359.63;;;14.78;100.00
55490;BME280;44029;52.956;4.772;2022-10-04T00:44:57;102348.84;;;14.65;100.00
55490;BME280;44029;52.956;4.772;2022-10-04T00:50:31;102359.75;;;14.60;100.00
55490;BME280;44029;52.956;4.772;2022-10-04T00:52:59;102369.19;;;14.52;100.00
55490;BME280;44029;52.956;4.772;2022-10-04T00:55:35;102361.75;;;14.53;100.00
55490;BME280;44029;52.956;4.772;2022-10-04T00:58:03;102362.94;;;14.45;100.00
55490;BME280;44029;52.956;4.772;2022-10-04T01:00:32;102356.97;;;14.36;100.00
55490;BME280;44029;52.956;4.772;2022-10-04T01:03:06;102352.78;;;14.45;100.00
55490;BME280;44029;52.956;4.772;2022-10-04T01:05:38;102353.13;;;14.37;100.00
55490;BME280;44029;52.956;4.772;2022-10-04T01:10:35;102341.38;;;14.30;100.00
55490;BME280;44029;52.956;4.772;2022-10-04T01:13:06;102338.09;;;14.21;100.00
55490;BME280;44029;52.956;4.772;2022-10-04T01:15:42;102339.94;;;14.27;100.00
55490;BME280;44029;52.956;4.772;2022-10-04T01:18:15;102336.09;;;14.28;100.00
55490;BME280;44029;52.956;4.772;2022-10-04T01:21:07;102335.03;;;14.29;100.00
55490;BME280;44029;52.956;4.772;2022-10-04T01:23:35;102334.19;;;14.29;100.00
55490;BME280;44029;52.956;4.772;2022-10-04T01:26:48;102327.81;;;14.17;100.00
55490;BME280;44029;52.956;4.772;2022-10-04T01:28:48;102318.44;;;13.94;100.00
55490;BME280;44029;52.956;4.772;2022-10-04T01:31:14;102324.44;;;14.03;100.00
55490;BME280;44029;52.956;4.772;2022-10-04T01:33:40;102323.00;;;14.00;100.00
55490;BME280;44029;52.956;4.772;2022-10-04T01:36:06;102303.56;;;13.95;100.00
55490;BME280;44029;52.956;4.772;2022-10-04T01:38:32;102309.56;;;13.92;100.00
55490;BME280;44029;52.956;4.772;2022-10-04T01:40:58;102301.56;;;14.02;100.00
55490;BME280;44029;52.956;4.772;2022-10-04T01:43:31;102309.81;;;14.02;100.00
55490;BME280;44029;52.956;4.772;2022-10-04T01:46:04;102303.59;;;14.07;100.00
55490;BME280;44029;52.956;4.772;2022-10-04T01:48:33;102308.16;;;14.13;100.00
55490;BME280;44029;52.956;4.772;2022-10-04T01:51:16;102305.63;;;14.11;100.00
55490;BME280;44029;52.956;4.772;2022-10-04T01:54:05;102294.63;;;14.11;100.00
55490;BME280;44029;52.956;4.772;2022-10-04T01:56:40;102294.00;;;14.09;100.00
55490;BME280;44029;52.956;4.772;2022-10-04T01:59:13;102289.69;;;14.02;100.00
55490;BME280;44029;52.956;4.772;2022-10-04T02:04:16;102281.19;;;14.15;100.00
55490;BME280;44029;52.956;4.772;2022-10-04T02:06:44;102275.31;;;14.11;100.00
55490;BME280;44029;52.956;4.772;2022-10-04T02:09:18;102283.34;;;14.13;100.00
55490;BME280;44029;52.956;4.772;2022-10-04T02:11:47;102272.81;;;14.10;100.00
55490;BME280;44029;52.956;4.772;2022-10-04T02:14:17;102270.53;;;14.19;100.00
55490;BME280;44029;52.956;4.772;2022-10-04T02:16:45;102267.19;;;14.05;100.00
55490;BME280;44029;52.956;4.772;2022-10-04T02:19:13;102262.63;;;13.99;100.00
55490;BME280;44029;52.956;4.772;2022-10-04T02:21:40;102260.44;;;14.01;100.00
55490;BME280;44029;52.956;4.772;2022-10-04T02:24:08;102252.69;;;13.98;100.00
55490;BME280;44029;52.956;4.772;2022-10-04T02:26:33;102252.06;;;13.84;100.00
55490;BME280;44029;52.956;4.772;2022-10-04T02:28:59;102246.91;;;13.87;100.00
55490;BME280;44029;52.956;4.772;2022-10-04T02:31:26;102247.53;;;14.01;100.00
55490;BME280;44029;52.956;4.772;2022-10-04T02:34:11;102249.19;;;13.90;100.00
55490;BME280;44029;52.956;4.772;2022-10-04T02:36:37;102237.56;;;13.77;100.00
55490;BME280;44029;52.956;4.772;2022-10-04T02:39:16;102243.19;;;13.82;100.00
55490;BME280;44029;52.956;4.772;2022-10-04T02:46:52;102231.94;;;13.71;100.00
55490;BME280;44029;52.956;4.772;2022-10-04T02:52:02;102220.06;;;13.59;100.00
55490;BME280;44029;52.956;4.772;2022-10-04T02:54:36;102221.63;;;13.55;100.00
55490;BME280;44029;52.956;4.772;2022-10-04T02:57:03;102219.03;;;13.42;100.00
55490;BME280;44029;52.956;4.772;2022-10-04T02:59:30;102225.78;;;13.46;100.00
55490;BME280;44029;52.956;4.772;2022-10-04T03:01:58;102231.88;;;13.48;100.00
55490;BME280;44029;52.956;4.772;2022-10-04T03:04:29;102230.53;;;13.39;100.00
55490;BME280;44029;52.956;4.772;2022-10-04T03:06:58;102229.94;;;13.37;100.00
55490;BME280;44029;52.956;4.772;2022-10-04T03:09:26;102229.81;;;13.31;100.00
55490;BME280;44029;52.956;4.772;2022-10-04T03:11:52;102219.00;;;13.30;100.00
55490;BME280;44029;52.956;4.772;2022-10-04T03:14:22;102218.06;;;13.36;100.00
55490;BME280;44029;52.956;4.772;2022-10-04T03:16:51;102213.06;;;13.33;100.00
55490;BME280;44029;52.956;4.772;2022-10-04T03:19:18;102210.72;;;13.30;100.00
55490;BME280;44029;52.956;4.772;2022-10-04T03:21:47;102215.41;;;13.29;100.00
55490;BME280;44029;52.956;4.772;2022-10-04T03:24:17;102215.47;;;13.41;100.00
55490;BME280;44029;52.956;4.772;2022-10-04T03:26:51;102216.06;;;13.43;100.00
55490;BME280;44029;52.956;4.772;2022-10-04T03:29:18;102212.19;;;13.32;100.00
55490;BME280;44029;52.956;4.772;2022-10-04T03:31:48;102206.59;;;13.39;100.00
55490;BME280;44029;52.956;4.772;2022-10-04T03:34:22;102205.41;;;13.47;100.00
55490;BME280;44029;52.956;4.772;2022-10-04T03:36:50;102197.16;;;13.35;100.00
55490;BME280;44029;52.956;4.772;2022-10-04T03:41:51;102198.00;;;13.17;100.00
55490;BME280;44029;52.956;4.772;2022-10-04T03:44:17;102196.00;;;13.24;100.00
55490;BME280;44029;52.956;4.772;2022-10-04T03:46:44;102198.50;;;13.14;100.00
55490;BME280;44029;52.956;4.772;2022-10-04T03:49:14;102202.34;;;13.25;100.00
55490;BME280;44029;52.956;4.772;2022-10-04T03:51:45;102193.19;;;13.31;100.00
55490;BME280;44029;52.956;4.772;2022-10-04T03:54:16;102182.69;;;13.21;100.00
55490;BME280;44029;52.956;4.772;2022-10-04T03:56:43;102178.75;;;13.17;100.00
55490;BME280;44029;52.956;4.772;2022-10-04T03:59:13;102184.25;;;13.17;100.00
55490;BME280;44029;52.956;4.772;2022-10-04T04:01:44;102192.28;;;13.19;100.00
55490;BME280;44029;52.956;4.772;2022-10-04T04:10:29;102188.09;;;13.16;100.00
55490;BME280;44029;52.956;4.772;2022-10-04T04:12:59;102186.75;;;13.07;100.00
55490;BME280;44029;52.956;4.772;2022-10-04T04:15:31;102184.09;;;13.12;100.00
55490;BME280;44029;52.956;4.772;2022-10-04T04:18:04;102175.00;;;13.00;100.00
55490;BME280;44029;52.956;4.772;2022-10-04T04:20:37;102171.28;;;12.94;100.00
55490;BME280;44029;52.956;4.772;2022-10-04T04:23:21;102166.13;;;12.98;100.00
55490;BME280;44029;52.956;4.772;2022-10-04T04:25:50;102169.91;;;12.85;100.00
55490;BME280;44029;52.956;4.772;2022-10-04T04:31:00;102180.72;;;12.98;100.00
55490;BME280;44029;52.956;4.772;2022-10-04T04:33:50;102175.53;;;12.90;100.00
55490;BME280;44029;52.956;4.772;2022-10-04T04:36:17;102168.63;;;12.69;100.00
55490;BME280;44029;52.956;4.772;2022-10-04T04:38:43;102170.34;;;12.70;100.00
55490;BME280;44029;52.956;4.772;2022-10-04T04:41:29;102155.03;;;12.74;100.00
55490;BME280;44029;52.956;4.772;2022-10-04T04:43:56;102162.22;;;12.56;100.00
55490;BME280;44029;52.956;4.772;2022-10-04T04:46:21;102163.78;;;12.52;100.00
55490;BME280;44029;52.956;4.772;2022-10-04T04:48:48;102161.63;;;12.54;100.00
55490;BME280;44029;52.956;4.772;2022-10-04T04:51:21;102160.25;;;12.64;100.00
55490;BME280;44029;52.956;4.772;2022-10-04T04:53:49;102162.56;;;12.48;100.00
55490;BME280;44029;52.956;4.772;2022-10-04T04:56:18;102168.44;;;12.52;100.00
55490;BME280;44029;52.956;4.772;2022-10-04T04:58:47;102162.09;;;12.51;100.00
55490;BME280;44029;52.956;4.772;2022-10-04T05:01:38;102165.91;;;12.50;100.00
55490;BME280;44029;52.956;4.772;2022-10-04T05:06:38;102149.03;;;12.47;100.00
55490;BME280;44029;52.956;4.772;2022-10-04T05:09:05;102144.94;;;12.37;100.00
55490;BME280;44029;52.956;4.772;2022-10-04T05:11:34;102140.91;;;12.40;100.00
55490;BME280;44029;52.956;4.772;2022-10-04T05:14:06;102142.19;;;12.37;100.00
55490;BME280;44029;52.956;4.772;2022-10-04T05:16:45;102139.81;;;12.41;100.00
55490;BME280;44029;52.956;4.772;2022-10-04T05:19:15;102136.31;;;12.34;100.00
55490;BME280;44029;52.956;4.772;2022-10-04T05:21:46;102129.00;;;12.28;100.00
55490;BME280;44029;52.956;4.772;2022-10-04T05:24:33;102122.03;;;12.44;100.00
55490;BME280;44029;52.956;4.772;2022-10-04T05:27:03;102113.88;;;12.37;100.00
55490;BME280;44029;52.956;4.772;2022-10-04T05:29:42;102119.28;;;12.44;100.00
55490;BME280;44029;52.956;4.772;2022-10-04T05:34:50;102118.53;;;12.36;100.00
55490;BME280;44029;52.956;4.772;2022-10-04T05:42:46;102100.19;;;12.49;100.00
55490;BME280;44029;52.956;4.772;2022-10-04T05:45:25;102092.03;;;12.42;100.00
55490;BME280;44029;52.956;4.772;2022-10-04T05:47:53;102097.53;;;12.42;100.00
55490;BME280;44029;52.956;4.772;2022-10-04T05:50:38;102089.50;;;12.41;100.00
55490;BME280;44029;52.956;4.772;2022-10-04T05:56:00;102083.50;;;12.32;100.00
55490;BME280;44029;52.956;4.772;2022-10-04T05:58:47;102077.84;;;12.27;100.00
55490;BME280;44029;52.956;4.772;2022-10-04T06:04:26;102081.47;;;12.09;100.00
55490;BME280;44029;52.956;4.772;2022-10-04T06:12:45;102097.97;;;12.39;100.00
55490;BME280;44029;52.956;4.772;2022-10-04T06:18:23;102104.84;;;12.48;100.00
55490;BME280;44029;52.956;4.772;2022-10-04T06:21:08;102099.94;;;12.50;100.00
55490;BME280;44029;52.956;4.772;2022-10-04T06:26:20;102089.41;;;12.77;100.00
55490;BME280;44029;52.956;4.772;2022-10-04T06:28:53;102094.50;;;13.04;100.00
55490;BME280;44029;52.956;4.772;2022-10-04T06:34:29;102089.38;;;13.08;100.00
55490;BME280;44029;52.956;4.772;2022-10-04T06:40:18;102079.31;;;13.13;100.00
55490;BME280;44029;52.956;4.772;2022-10-04T06:46:06;102078.84;;;13.05;100.00
55490;BME280;44029;52.956;4.772;2022-10-04T07:05:19;102063.19;;;13.88;100.00
55490;BME280;44029;52.956;4.772;2022-10-04T07:07:52;102066.94;;;13.58;100.00
55490;BME280;44029;52.956;4.772;2022-10-04T07:15:56;102067.63;;;13.89;100.00
55490;BME280;44029;52.956;4.772;2022-10-04T07:18:34;102059.47;;;13.82;100.00
55490;BME280;44029;52.956;4.772;2022-10-04T07:21:12;102056.84;;;13.87;100.00
55490;BME280;44029;52.956;4.772;2022-10-04T07:23:49;102062.59;;;13.86;100.00
55490;BME280;44029;52.956;4.772;2022-10-04T07:26:45;102062.22;;;13.82;100.00
55490;BME280;44029;52.956;4.772;2022-10-04T07:29:25;102064.63;;;13.79;100.00
55490;BME280;44029;52.956;4.772;2022-10-04T07:34:28;102061.03;;;13.78;100.00
55490;BME280;44029;52.956;4.772;2022-10-04T07:37:00;102066.19;;;13.86;100.00
55490;BME280;44029;52.956;4.772;2022-10-04T07:39:57;102056.59;;;13.89;100.00
55490;BME280;44029;52.956;4.772;2022-10-04T07:42:31;102058.09;;;13.68;100.00
55490;BME280;44029;52.956;4.772;2022-10-04T07:45:11;102064.63;;;13.79;100.00
55490;BME280;44029;52.956;4.772;2022-10-04T07:47:39;102064.53;;;13.73;100.00
55490;BME280;44029;52.956;4.772;2022-10-04T07:50:23;102058.97;;;13.97;100.00
55490;BME280;44029;52.956;4.772;2022-10-04T07:53:15;102066.81;;;14.17;100.00
55490;BME280;44029;52.956;4.772;2022-10-04T07:55:56;102070.97;;;14.31;100.00
55490;BME280;44029;52.956;4.772;2022-10-04T08:01:58;102067.50;;;14.65;100.00
55490;BME280;44029;52.956;4.772;2022-10-04T08:07:01;102064.09;;;14.92;100.00
55490;BME280;44029;52.956;4.772;2022-10-04T08:10:00;102072.66;;;15.07;100.00
55490;BME280;44029;52.956;4.772;2022-10-04T08:17:30;102042.84;;;15.43;100.00
55490;BME280;44029;52.956;4.772;2022-10-04T08:22:32;102028.50;;;15.63;100.00
55490;BME280;44029;52.956;4.772;2022-10-04T08:25:38;102021.00;;;16.24;100.00
55490;BME280;44029;52.956;4.772;2022-10-04T08:33:58;102021.84;;;15.59;100.00
55490;BME280;44029;52.956;4.772;2022-10-04T08:36:29;102013.38;;;16.10;100.00
55490;BME280;44029;52.956;4.772;2022-10-04T08:39:00;102004.16;;;16.53;100.00
55490;BME280;44029;52.956;4.772;2022-10-04T08:56:08;102001.47;;;16.58;100.00
55490;BME280;44029;52.956;4.772;2022-10-04T09:07:39;101980.84;;;17.51;100.00
55490;BME280;44029;52.956;4.772;2022-10-04T09:10:32;101978.56;;;17.38;100.00
55490;BME280;44029;52.956;4.772;2022-10-04T09:18:19;101976.22;;;17.19;100.00
55490;BME280;44029;52.956;4.772;2022-10-04T09:37:35;101986.47;;;17.72;100.00
55490;BME280;44029;52.956;4.772;2022-10-04T09:48:44;101971.53;;;17.78;100.00
55490;BME280;44029;52.956;4.772;2022-10-04T09:54:42;101965.19;;;17.83;100.00
55490;BME280;44029;52.956;4.772;2022-10-04T10:08:16;102002.41;;;18.02;100.00
55490;BME280;44029;52.956;4.772;2022-10-04T10:11:01;101996.84;;;17.92;100.00
55490;BME280;44029;52.956;4.772;2022-10-04T10:19:54;101984.91;;;17.91;100.00
55490;BME280;44029;52.956;4.772;2022-10-04T10:22:14;101976.63;;;18.02;100.00
55490;BME280;44029;52.956;4.772;2022-10-04T10:30:37;101972.81;;;18.23;100.00
55490;BME280;44029;52.956;4.772;2022-10-04T10:44:06;101955.53;;;17.95;100.00
55490;BME280;44029;52.956;4.772;2022-10-04T11:00:22;101958.19;;;17.70;100.00
55490;BME280;44029;52.956;4.772;2022-10-04T11:11:02;101964.78;;;17.64;100.00
55490;BME280;44029;52.956;4.772;2022-10-04T11:17:08;101965.38;;;17.71;100.00
55490;BME280;44029;52.956;4.772;2022-10-04T11:30:25;101947.91;;;17.60;100.00
55490;BME280;44029;52.956;4.772;2022-10-04T11:41:45;101947.25;;;17.43;100.00
55490;BME280;44029;52.956;4.772;2022-10-04T11:47:30;101931.53;;;17.64;100.00
55490;BME280;44029;52.956;4.772;2022-10-04T11:55:55;101918.56;;;17.74;100.00
55490;BME280;44029;52.956;4.772;2022-10-04T11:58:48;101903.44;;;18.13;100.00
55490;BME280;44029;52.956;4.772;2022-10-04T12:01:36;101895.41;;;18.32;100.00
55490;BME280;44029;52.956;4.772;2022-10-04T12:06:58;101876.00;;;18.32;100.00
55490;BME280;44029;52.956;4.772;2022-10-04T12:24:02;101855.75;;;18.26;100.00
55490;BME280;44029;52.956;4.772;2022-10-04T12:26:53;101838.25;;;18.15;100.00
55490;BME280;44029;52.956;4.772;2022-10-04T12:29:41;101838.00;;;18.07;100.00
55490;BME280;44029;52.956;4.772;2022-10-04T12:32:25;101833.00;;;18.29;100.00
55490;BME280;44029;52.956;4.772;2022-10-04T12:38:20;101834.66;;;18.15;100.00
55490;BME280;44029;52.956;4.772;2022-10-04T12:49:07;101814.91;;;18.63;100.00
55490;BME280;44029;52.956;4.772;2022-10-04T12:52:06;101808.81;;;18.61;100.00
55490;BME280;44029;52.956;4.772;2022-10-04T12:54:47;101804.13;;;18.41;100.00
55490;BME280;44029;52.956;4.772;2022-10-04T12:57:33;101803.03;;;18.42;100.00
55490;BME280;44029;52.956;4.772;2022-10-04T13:00:21;101794.94;;;18.61;100.00
55490;BME280;44029;52.956;4.772;2022-10-04T13:14:14;101770.25;;;18.59;100.00
55490;BME280;44029;52.956;4.772;2022-10-04T13:17:00;101763.59;;;18.55;100.00
55490;BME280;44029;52.956;4.772;2022-10-04T13:19:38;101766.31;;;18.70;100.00
55490;BME280;44029;52.956;4.772;2022-10-04T13:22:34;101777.44;;;18.81;100.00
55490;BME280;44029;52.956;4.772;2022-10-04T13:25:13;101784.34;;;18.88;100.00
55490;BME280;44029;52.956;4.772;2022-10-04T13:30:31;101774.09;;;18.68;100.00
55490;BME280;44029;52.956;4.772;2022-10-04T13:35:35;101783.84;;;18.55;100.00
55490;BME280;44029;52.956;4.772;2022-10-04T13:57:50;101801.38;;;17.89;100.00
55490;BME280;44029;52.956;4.772;2022-10-04T14:09:12;101782.00;;;18.05;100.00
55490;BME280;44029;52.956;4.772;2022-10-04T14:23:05;101794.16;;;17.99;100.00
55490;BME280;44029;52.956;4.772;2022-10-04T14:28:43;101787.22;;;18.06;100.00
55490;BME280;44029;52.956;4.772;2022-10-04T14:39:14;101788.31;;;18.57;100.00
55490;BME280;44029;52.956;4.772;2022-10-04T14:53:22;101773.94;;;17.93;100.00
55490;BME280;44029;52.956;4.772;2022-10-04T14:56:08;101770.34;;;18.23;100.00
55490;BME280;44029;52.956;4.772;2022-10-04T15:07:31;101803.59;;;18.28;100.00
55490;BME280;44029;52.956;4.772;2022-10-04T15:10:21;101797.50;;;18.31;100.00
55490;BME280;44029;52.956;4.772;2022-10-04T15:13:01;101796.94;;;18.34;100.00
55490;BME280;44029;52.956;4.772;2022-10-04T15:15:42;101793.59;;;18.38;100.00
55490;BME280;44029;52.956;4.772;2022-10-04T15:18:32;101790.25;;;18.41;100.00
55490;BME280;44029;52.956;4.772;2022-10-04T15:23:53;101788.06;;;18.32;100.00
55490;BME280;44029;52.956;4.772;2022-10-04T15:42:20;101784.16;;;18.44;100.00
55490;BME280;44029;52.956;4.772;2022-10-04T15:51:11;101789.16;;;18.31;100.00
55490;BME280;44029;52.956;4.772;2022-10-04T15:53:53;101796.13;;;18.19;100.00
55490;BME280;44029;52.956;4.772;2022-10-04T16:01:55;101784.75;;;18.00;100.00
55490;BME280;44029;52.956;4.772;2022-10-04T16:04:38;101782.50;;;17.81;100.00
55490;BME280;44029;52.956;4.772;2022-10-04T16:20:37;101799.16;;;17.96;100.00
55490;BME280;44029;52.956;4.772;2022-10-04T16:23:34;101813.59;;;18.04;100.00
55490;BME280;44029;52.956;4.772;2022-10-04T16:31:44;101793.63;;;18.07;100.00
55490;BME280;44029;52.956;4.772;2022-10-04T16:37:19;101786.69;;;18.20;100.00
55490;BME280;44029;52.956;4.772;2022-10-04T16:47:49;101803.59;;;17.87;100.00
55490;BME280;44029;52.956;4.772;2022-10-04T16:53:27;101791.13;;;17.85;100.00
55490;BME280;44029;52.956;4.772;2022-10-04T16:56:15;101786.38;;;17.70;100.00
55490;BME280;44029;52.956;4.772;2022-10-04T16:59:07;101774.47;;;17.69;100.00
55490;BME280;44029;52.956;4.772;2022-10-04T17:20:55;101809.66;;;17.74;100.00
55490;BME280;44029;52.956;4.772;2022-10-04T17:32:26;101794.47;;;17.92;100.00
55490;BME280;44029;52.956;4.772;2022-10-04T17:35:04;101791.38;;;17.83;100.00
55490;BME280;44029;52.956;4.772;2022-10-04T17:37:57;101813.81;;;17.82;100.00
55490;BME280;44029;52.956;4.772;2022-10-04T17:40:58;101822.41;;;17.75;100.00
55490;BME280;44029;52.956;4.772;2022-10-04T17:44:30;101834.03;;;17.67;100.00
55490;BME280;44029;52.956;4.772;2022-10-04T17:46:41;101823.81;;;17.88;100.00
55490;BME280;44029;52.956;4.772;2022-10-04T17:52:23;101811.84;;;17.67;100.00
55490;BME280;44029;52.956;4.772;2022-10-04T17:55:28;101819.09;;;17.83;100.00
55490;BME280;44029;52.956;4.772;2022-10-04T17:58:02;101818.78;;;17.64;100.00
55490;BME280;44029;52.956;4.772;2022-10-04T18:00:54;101818.50;;;17.61;100.00
55490;BME280;44029;52.956;4.772;2022-10-04T18:03:25;101816.81;;;17.54;100.00
55490;BME280;44029;52.956;4.772;2022-10-04T18:06:00;101832.31;;;17.50;100.00
55490;BME280;44029;52.956;4.772;2022-10-04T18:09:32;101812.38;;;17.48;100.00
55490;BME280;44029;52.956;4.772;2022-10-04T18:11:33;101821.47;;;17.33;100.00
55490;BME280;44029;52.956;4.772;2022-10-04T18:16:52;101793.00;;;17.53;100.00
55490;BME280;44029;52.956;4.772;2022-10-04T18:22:20;101798.81;;;17.52;100.00
55490;BME280;44029;52.956;4.772;2022-10-04T18:25:28;101793.25;;;17.42;100.00
55490;BME280;44029;52.956;4.772;2022-10-04T18:30:50;101783.03;;;17.47;100.00
55490;BME280;44029;52.956;4.772;2022-10-04T18:33:47;101781.34;;;17.46;100.00
55490;BME280;44029;52.956;4.772;2022-10-04T18:36:19;101772.22;;;17.46;100.00
55490;BME280;44029;52.956;4.772;2022-10-04T18:39:15;101769.72;;;17.49;100.00
55490;BME280;44029;52.956;4.772;2022-10-04T18:41:43;101758.06;;;17.37;100.00
55490;BME280;44029;52.956;4.772;2022-10-04T18:44:58;101752.53;;;17.42;100.00
55490;BME280;44029;52.956;4.772;2022-10-04T18:49:59;101749.16;;;17.30;100.00
55490;BME280;44029;52.956;4.772;2022-10-04T18:52:48;101754.16;;;17.33;100.00
55490;BME280;44029;52.956;4.772;2022-10-04T18:55:44;101760.56;;;17.44;100.00
55490;BME280;44029;52.956;4.772;2022-10-04T18:58:50;101760.00;;;17.47;100.00
55490;BME280;44029;52.956;4.772;2022-10-04T19:07:08;101774.94;;;17.35;100.00
55490;BME280;44029;52.956;4.772;2022-10-04T19:12:39;101768.03;;;17.48;100.00
55490;BME280;44029;52.956;4.772;2022-10-04T19:17:57;101768.31;;;17.47;100.00
55490;BME280;44029;52.956;4.772;2022-10-04T19:25:49;101756.16;;;17.53;100.00
55490;BME280;44029;52.956;4.772;2022-10-04T19:28:25;101771.97;;;17.68;100.00
55490;BME280;44029;52.956;4.772;2022-10-04T19:31:20;101759.19;;;17.51;100.00
55490;BME280;44029;52.956;4.772;2022-10-04T19:34:03;101764.19;;;17.49;100.00
55490;BME280;44029;52.956;4.772;2022-10-04T19:36:49;101765.00;;;17.50;100.00
55490;BME280;44029;52.956;4.772;2022-10-04T19:39:39;101757.25;;;17.52;100.00
55490;BME280;44029;52.956;4.772;2022-10-04T19:42:14;101760.56;;;17.49;100.00
55490;BME280;44029;52.956;4.772;2022-10-04T19:44:48;101762.50;;;17.48;100.00
55490;BME280;44029;52.956;4.772;2022-10-04T19:50:29;101764.19;;;17.49;100.00
55490;BME280;44029;52.956;4.772;2022-10-04T19:53:06;101771.38;;;17.50;100.00
55490;BME280;44029;52.956;4.772;2022-10-04T19:55:44;101765.31;;;17.58;100.00
55490;BME280;44029;52.956;4.772;2022-10-04T20:00:56;101777.19;;;17.44;100.00
55490;BME280;44029;52.956;4.772;2022-10-04T20:03:21;101782.97;;;17.37;100.00
55490;BME280;44029;52.956;4.772;2022-10-04T20:05:49;101787.69;;;17.31;100.00
55490;BME280;44029;52.956;4.772;2022-10-04T20:08:43;101786.56;;;17.37;100.00
55490;BME280;44029;52.956;4.772;2022-10-04T20:11:44;101769.72;;;17.44;100.00
55490;BME280;44029;52.956;4.772;2022-10-04T20:21:56;101781.03;;;17.32;100.00
55490;BME280;44029;52.956;4.772;2022-10-04T20:35:04;101765.53;;;17.36;100.00
55490;BME280;44029;52.956;4.772;2022-10-04T20:45:44;101769.38;;;17.25;100.00
55490;BME280;44029;52.956;4.772;2022-10-04T20:48:19;101768.81;;;17.18;100.00
55490;BME280;44029;52.956;4.772;2022-10-04T20:50:44;101769.03;;;17.06;100.00
55490;BME280;44029;52.956;4.772;2022-10-04T20:53:21;101769.63;;;17.18;100.00
55490;BME280;44029;52.956;4.772;2022-10-04T20:55:48;101763.28;;;17.18;100.00
55490;BME280;44029;52.956;4.772;2022-10-04T20:58:28;101770.75;;;17.23;100.00
55490;BME280;44029;52.956;4.772;2022-10-04T21:01:17;101772.69;;;17.22;100.00
55490;BME280;44029;52.956;4.772;2022-10-04T21:04:24;101775.22;;;17.29;100.00
55490;BME280;44029;52.956;4.772;2022-10-04T21:07:02;101781.03;;;17.32;100.00
55490;BME280;44029;52.956;4.772;2022-10-04T21:09:31;101783.47;;;17.18;100.00
55490;BME280;44029;52.956;4.772;2022-10-04T21:11:58;101775.47;;;17.22;100.00
55490;BME280;44029;52.956;4.772;2022-10-04T21:17:00;101778.25;;;17.27;100.00
55490;BME280;44029;52.956;4.772;2022-10-04T21:22:01;101774.06;;;17.25;100.00
55490;BME280;44029;52.956;4.772;2022-10-04T21:24:38;101782.41;;;17.30;100.00
55490;BME280;44029;52.956;4.772;2022-10-04T21:27:06;101783.50;;;17.24;100.00
55490;BME280;44029;52.956;4.772;2022-10-04T21:29:33;101780.69;;;17.08;100.00
55490;BME280;44029;52.956;4.772;2022-10-04T21:31:58;101780.69;;;17.13;100.00
55490;BME280;44029;52.956;4.772;2022-10-04T21:34:24;101776.56;;;17.21;100.00
55490;BME280;44029;52.956;4.772;2022-10-04T21:36:49;101776.00;;;17.14;100.00
55490;BME280;44029;52.956;4.772;2022-10-04T21:39:15;101768.72;;;17.03;100.00
55490;BME280;44029;52.956;4.772;2022-10-04T21:41:40;101771.50;;;17.03;100.00
55490;BME280;44029;52.956;4.772;2022-10-04T21:44:06;101762.94;;;16.99;100.00
55490;BME280;44029;52.956;4.772;2022-10-04T21:46:32;101760.75;;;17.11;100.00
55490;BME280;44029;52.956;4.772;2022-10-04T21:48:58;101761.28;;;17.03;100.00
55490;BME280;44029;52.956;4.772;2022-10-04T21:51:23;101759.06;;;17.05;100.00
55490;BME280;44029;52.956;4.772;2022-10-04T21:53:49;101762.91;;;16.94;100.00
55490;BME280;44029;52.956;4.772;2022-10-04T21:56:14;101755.66;;;16.88;100.00
55490;BME280;44029;52.956;4.772;2022-10-04T21:58:39;101748.50;;;16.97;100.00
55490;BME280;44029;52.956;4.772;2022-10-04T22:01:05;101757.66;;;16.97;100.00
55490;BME280;44029;52.956;4.772;2022-10-04T22:03:31;101745.44;;;16.93;100.00
55490;BME280;44029;52.956;4.772;2022-10-04T22:05:56;101749.06;;;16.94;100.00
55490;BME280;44029;52.956;4.772;2022-10-04T22:08:21;101734.97;;;17.00;100.00
55490;BME280;44029;52.956;4.772;2022-10-04T22:10:47;101741.91;;;17.03;100.00
55490;BME280;44029;52.956;4.772;2022-10-04T22:13:12;101734.72;;;17.07;100.00
55490;BME280;44029;52.956;4.772;2022-10-04T22:15:38;101736.09;;;17.10;100.00
55490;BME280;44029;52.956;4.772;2022-10-04T22:18:03;101730.81;;;16.98;100.00
55490;BME280;44029;52.956;4.772;2022-10-04T22:20:29;101728.03;;;16.98;100.00
55490;BME280;44029;52.956;4.772;2022-10-04T22:22:55;101730.25;;;16.96;100.00
55490;BME280;44029;52.956;4.772;2022-10-04T22:25:23;101734.72;;;17.07;100.00
55490;BME280;44029;52.956;4.772;2022-10-04T22:27:49;101735.81;;;17.01;100.00
55490;BME280;44029;52.956;4.772;2022-10-04T22:30:36;101725.28;;;16.98;100.00
55490;BME280;44029;52.956;4.772;2022-10-04T22:33:23;101726.94;;;16.99;100.00
55490;BME280;44029;52.956;4.772;2022-10-04T22:35:51;101735.75;;;16.86;100.00